createdAt,value
2023-02-03T00:01:51.333Z,11.90
2023-02-03T00:04:18.282Z,11.95
2023-02-03T00:06:45.611Z,11.27
2023-02-03T00:09:12.494Z,11.25
2023-02-03T00:11:39.852Z,11.30
2023-02-03T00:14:08.100Z,10.60
2023-02-03T00:16:35.558Z,10.43
2023-02-03T00:19:02.862Z,16.15
2023-02-03T00:21:29.725Z,14.57
2023-02-03T00:23:56.581Z,15.23
2023-02-03T00:26:26.003Z,14.82
2023-02-03T00:28:52.929Z,15.70
2023-02-03T00:31:24.517Z,14.30
2023-02-03T00:33:58.303Z,14.93
2023-02-03T00:36:26.418Z,15.10
2023-02-03T00:38:53.894Z,14.00
2023-02-03T00:41:21.670Z,13.93
2023-02-03T00:43:49.450Z,14.50
2023-02-03T00:46:16.792Z,13.75
2023-02-03T00:48:44.052Z,14.70
2023-02-03T00:51:10.908Z,14.45
2023-02-03T00:53:37.950Z,15.77
2023-02-03T00:56:12.452Z,16.65
2023-02-03T00:58:42.439Z,15.70
2023-02-03T01:01:09.875Z,17.17
2023-02-03T01:03:37.088Z,17.52
2023-02-03T01:06:18.835Z,17.08
2023-02-03T01:08:47.740Z,17.27
2023-02-03T01:11:19.817Z,16.42
2023-02-03T01:13:49.084Z,16.88
2023-02-03T01:16:18.698Z,16.13
2023-02-03T01:18:46.674Z,15.70
2023-02-03T01:21:25.229Z,14.45
2023-02-03T01:23:53.458Z,14.35
2023-02-03T01:26:21.677Z,14.48
2023-02-03T01:28:53.107Z,14.02
2023-02-03T01:31:24.060Z,13.70
2023-02-03T01:33:52.596Z,11.70
2023-02-03T01:36:19.557Z,13.32
2023-02-03T01:38:46.556Z,13.57
2023-02-03T01:41:19.588Z,14.20
2023-02-03T01:43:49.906Z,14.38
2023-02-03T01:46:31.781Z,14.85
2023-02-03T01:51:29.915Z,15.20
2023-02-03T01:53:57.537Z,14.50
2023-02-03T01:56:25.568Z,14.18
2023-02-03T01:58:52.530Z,13.55
2023-02-03T02:01:19.912Z,13.63
2023-02-03T02:03:52.346Z,13.63
2023-02-03T02:06:19.313Z,13.57
2023-02-03T02:08:51.560Z,14.25
2023-02-03T02:11:21.481Z,14.75
2023-02-03T02:13:50.099Z,15.15
2023-02-03T02:16:18.809Z,13.85
2023-02-03T02:18:48.745Z,13.32
2023-02-03T02:21:43.174Z,12.65
2023-02-03T02:24:28.360Z,12.73
2023-02-03T02:26:55.308Z,11.38
2023-02-03T02:29:48.150Z,12.07
2023-02-03T02:32:18.254Z,10.73
2023-02-03T02:34:56.251Z,11.80
2023-02-03T02:37:31.136Z,10.70
2023-02-03T02:40:19.715Z,10.57
2023-02-03T02:43:07.044Z,10.80
2023-02-03T02:45:45.072Z,11.05
2023-02-03T02:48:36.248Z,10.88
2023-02-03T02:51:05.534Z,9.93
2023-02-03T02:53:38.839Z,9.65
2023-02-03T02:56:07.874Z,9.93
2023-02-03T02:58:36.451Z,10.07
2023-02-03T03:01:04.030Z,10.13
2023-02-03T03:03:30.891Z,9.13
2023-02-03T03:06:08.751Z,8.88
2023-02-03T03:09:00.955Z,8.85
2023-02-03T03:11:31.375Z,8.70
2023-02-03T03:13:59.746Z,8.48
2023-02-03T03:16:28.174Z,7.90
2023-02-03T03:19:01.982Z,7.97
2023-02-03T03:21:35.025Z,8.23
2023-02-03T03:24:10.310Z,7.43
2023-02-03T03:26:43.949Z,6.97
2023-02-03T03:29:24.501Z,6.72
2023-02-03T03:31:51.758Z,6.38
2023-02-03T03:34:18.969Z,6.90
2023-02-03T03:36:56.028Z,5.60
2023-02-03T03:39:22.961Z,5.72
2023-02-03T03:41:57.598Z,6.05
2023-02-03T03:44:29.663Z,5.90
2023-02-03T03:47:04.847Z,6.05
2023-02-03T03:49:34.107Z,5.75
2023-02-03T03:52:08.517Z,5.88
2023-02-03T03:54:37.809Z,6.82
2023-02-03T03:57:15.643Z,6.30
2023-02-03T03:59:46.168Z,6.60
2023-02-03T04:02:13.570Z,7.13
2023-02-03T04:04:41.065Z,7.05
2023-02-03T04:07:08.095Z,7.00
2023-02-03T04:09:37.058Z,7.63
2023-02-03T04:12:06.441Z,6.90
2023-02-03T04:14:36.021Z,7.70
2023-02-03T04:17:03.080Z,8.07
2023-02-03T04:19:30.194Z,7.65
2023-02-03T04:21:57.358Z,7.50
2023-02-03T04:24:24.672Z,7.40
2023-02-03T04:26:51.540Z,7.13
2023-02-03T04:29:18.506Z,7.28
2023-02-03T04:31:45.477Z,7.88
2023-02-03T04:34:12.493Z,7.47
2023-02-03T04:36:39.415Z,7.22
2023-02-03T04:39:06.429Z,6.85
2023-02-03T04:41:33.352Z,7.00
2023-02-03T04:44:00.230Z,6.70
2023-02-03T04:46:27.217Z,6.50
2023-02-03T04:48:54.091Z,6.80
2023-02-03T04:51:21.077Z,8.00
2023-02-03T04:53:47.928Z,7.82
2023-02-03T04:56:16.196Z,7.78
2023-02-03T04:58:43.242Z,6.93
2023-02-03T05:01:10.527Z,6.38
2023-02-03T05:03:37.970Z,6.32
2023-02-03T05:06:05.759Z,5.93
2023-02-03T05:08:32.937Z,6.30
2023-02-03T05:11:01.990Z,6.38
2023-02-03T05:13:29.726Z,6.55
2023-02-03T05:15:56.749Z,6.47
2023-02-03T05:18:24.089Z,5.47
2023-02-03T05:20:51.125Z,7.63
2023-02-03T05:23:18.138Z,6.88
2023-02-03T05:25:45.579Z,7.15
2023-02-03T05:28:12.786Z,6.43
2023-02-03T05:30:39.865Z,6.63
2023-02-03T05:33:07.013Z,6.57
2023-02-03T05:35:34.394Z,6.35
2023-02-03T05:38:01.425Z,6.85
2023-02-03T05:40:46.681Z,6.75
2023-02-03T05:43:13.702Z,7.38
2023-02-03T05:45:40.833Z,6.60
2023-02-03T05:48:07.814Z,8.38
2023-02-03T05:50:37.481Z,7.50
2023-02-03T05:53:09.120Z,7.32
2023-02-03T05:55:36.701Z,6.00
2023-02-03T05:58:04.759Z,5.75
2023-02-03T06:00:31.764Z,6.22
2023-02-03T06:03:00.958Z,6.47
2023-02-03T06:05:28.741Z,7.07
2023-02-03T06:07:55.716Z,7.18
2023-02-03T06:10:22.922Z,8.15
2023-02-03T06:12:50.297Z,8.90
2023-02-03T06:15:18.003Z,8.30
2023-02-03T06:17:46.421Z,9.40
2023-02-03T06:20:15.675Z,9.68
2023-02-03T06:22:43.193Z,8.90
2023-02-03T06:25:13.014Z,9.88
2023-02-03T06:27:41.035Z,10.27
2023-02-03T06:30:08.709Z,10.20
2023-02-03T06:32:35.629Z,10.20
2023-02-03T06:35:02.549Z,9.68
2023-02-03T06:37:29.550Z,9.80
2023-02-03T06:39:56.470Z,10.82
2023-02-03T06:42:23.476Z,10.55
2023-02-03T06:44:50.427Z,10.63
2023-02-03T06:47:17.371Z,8.05
2023-02-03T06:49:44.250Z,9.98
2023-02-03T06:52:11.226Z,12.27
2023-02-03T06:54:38.204Z,11.82
2023-02-03T06:57:05.214Z,11.45
2023-02-03T06:59:32.588Z,11.93
2023-02-03T07:01:59.533Z,12.85
2023-02-03T07:04:30.203Z,12.30
2023-02-03T07:06:57.811Z,11.27
2023-02-03T07:09:24.850Z,10.45
2023-02-03T07:11:51.806Z,10.38
2023-02-03T07:14:18.950Z,11.02
2023-02-03T07:16:45.894Z,11.13
2023-02-03T07:19:13.088Z,11.75
2023-02-03T07:21:40.047Z,9.68
2023-02-03T07:24:07.085Z,11.95
2023-02-03T07:26:34.147Z,11.07
2023-02-03T07:29:01.102Z,11.30
2023-02-03T07:31:28.379Z,9.20
2023-02-03T07:33:55.507Z,9.07
2023-02-03T07:36:22.476Z,9.55
2023-02-03T07:38:49.546Z,9.02
2023-02-03T07:41:18.141Z,7.55
2023-02-03T07:43:45.333Z,7.95
2023-02-03T07:46:12.768Z,6.22
2023-02-03T07:48:39.777Z,5.93
2023-02-03T07:51:06.790Z,6.57
2023-02-03T07:53:33.963Z,6.70
2023-02-03T07:56:02.789Z,6.15
2023-02-03T07:58:30.411Z,6.53
2023-02-03T08:00:58.122Z,6.75
2023-02-03T08:03:25.227Z,7.82
2023-02-03T08:05:53.630Z,6.78
2023-02-03T08:08:20.786Z,5.88
2023-02-03T08:10:47.805Z,6.30
2023-02-03T08:13:14.904Z,7.47
2023-02-03T08:15:41.908Z,7.25
2023-02-03T08:18:09.892Z,7.00
2023-02-03T08:20:36.889Z,6.53
2023-02-03T08:23:04.009Z,6.25
2023-02-03T08:25:31.164Z,9.15
2023-02-03T08:27:58.267Z,8.50
2023-02-03T08:30:26.200Z,9.98
2023-02-03T08:35:38.389Z,7.10
2023-02-03T08:38:05.426Z,7.45
2023-02-03T08:40:32.406Z,7.60
2023-02-03T08:42:59.436Z,6.57
2023-02-03T08:45:26.569Z,6.70
2023-02-03T08:47:53.625Z,7.45
2023-02-03T08:50:20.786Z,10.40
2023-02-03T08:52:47.788Z,6.20
2023-02-03T08:55:14.966Z,6.35
2023-02-03T08:57:42.295Z,6.63
2023-02-03T09:00:10.786Z,6.97
2023-02-03T09:02:37.903Z,6.82
2023-02-03T09:05:05.439Z,6.20
2023-02-03T09:07:32.429Z,7.40
2023-02-03T09:09:59.650Z,7.88
2023-02-03T09:12:26.751Z,5.38
2023-02-03T09:14:53.964Z,6.93
2023-02-03T09:17:21.041Z,7.28
2023-02-03T09:19:48.032Z,6.57
2023-02-03T09:22:15.075Z,6.60
2023-02-03T09:24:42.296Z,7.32
2023-02-03T09:27:09.373Z,7.75
2023-02-03T09:29:36.504Z,6.75
2023-02-03T09:32:07.941Z,8.25
2023-02-03T09:34:35.117Z,6.72
2023-02-03T09:37:02.273Z,7.78
2023-02-03T09:39:29.266Z,12.77
2023-02-03T09:42:25.445Z,9.20
2023-02-03T09:45:13.464Z,12.20
2023-02-03T09:47:43.131Z,9.70
2023-02-03T09:50:21.017Z,11.45
2023-02-03T09:52:48.430Z,10.60
2023-02-03T09:55:35.494Z,13.43
2023-02-03T09:58:18.482Z,10.60
2023-02-03T10:00:51.874Z,13.18
2023-02-03T10:03:38.769Z,10.38
2023-02-03T10:06:11.846Z,10.10
2023-02-03T10:09:03.868Z,18.42
2023-02-03T10:14:48.584Z,15.30
2023-02-03T10:17:34.790Z,13.63
2023-02-03T10:20:23.514Z,13.20
2023-02-03T10:23:14.385Z,10.20
2023-02-03T10:25:44.884Z,11.77
2023-02-03T10:28:28.270Z,33.35
2023-02-03T10:31:04.808Z,20.55
2023-02-03T10:33:32.691Z,15.25
2023-02-03T10:36:11.813Z,17.20
2023-02-03T10:38:51.491Z,19.25
2023-02-03T10:41:19.957Z,15.90
2023-02-03T10:43:47.677Z,15.82
2023-02-03T10:46:15.854Z,13.38
2023-02-03T10:48:42.997Z,11.13
2023-02-03T10:51:25.859Z,15.77
2023-02-03T10:53:53.803Z,12.52
2023-02-03T10:56:26.806Z,16.60
2023-02-03T10:58:56.746Z,14.65
2023-02-03T11:01:26.055Z,14.60
2023-02-03T11:04:06.828Z,14.93
2023-02-03T11:06:36.423Z,14.88
2023-02-03T11:09:22.786Z,14.15
2023-02-03T11:12:03.544Z,14.25
2023-02-03T11:14:37.623Z,10.90
2023-02-03T11:17:09.473Z,13.95
2023-02-03T11:22:04.290Z,13.20
2023-02-03T11:24:38.506Z,10.70
2023-02-03T11:27:17.106Z,10.52
2023-02-03T11:29:46.772Z,13.48
2023-02-03T11:32:28.065Z,12.73
2023-02-03T11:35:40.726Z,14.07
2023-02-03T11:38:31.968Z,13.00
2023-02-03T11:41:01.343Z,14.63
2023-02-03T11:43:31.670Z,14.43
2023-02-03T11:46:04.720Z,15.15
2023-02-03T11:49:11.432Z,18.13
2023-02-03T11:51:53.204Z,20.58
2023-02-03T11:54:45.193Z,14.00
2023-02-03T12:00:13.342Z,13.27
2023-02-03T12:03:01.989Z,9.80
2023-02-03T12:05:54.990Z,11.70
2023-02-03T12:09:08.283Z,13.30
2023-02-03T12:11:41.565Z,9.25
2023-02-03T12:14:46.212Z,13.95
2023-02-03T12:17:35.587Z,14.93
2023-02-03T12:20:32.290Z,12.93
2023-02-03T12:23:09.058Z,15.50
2023-02-03T12:25:51.633Z,19.17
2023-02-03T12:28:33.382Z,12.10
2023-02-03T12:31:18.457Z,13.10
2023-02-03T12:34:00.323Z,12.40
2023-02-03T12:36:31.206Z,11.73
2023-02-03T12:39:06.305Z,23.15
2023-02-03T12:41:36.608Z,16.67
2023-02-03T12:44:37.924Z,12.20
2023-02-03T12:47:12.844Z,10.93
2023-02-03T12:49:48.044Z,12.48
2023-02-03T12:52:43.717Z,10.85
2023-02-03T12:55:34.984Z,12.52
2023-02-03T12:58:12.466Z,9.75
2023-02-03T13:00:44.647Z,13.15
2023-02-03T13:03:33.365Z,12.25
2023-02-03T13:06:23.260Z,8.38
2023-02-03T13:09:17.806Z,11.82
2023-02-03T13:11:52.185Z,11.90
2023-02-03T13:14:56.503Z,10.57
2023-02-03T13:17:29.407Z,12.48
2023-02-03T13:20:03.226Z,17.85
2023-02-03T13:22:30.285Z,12.77
2023-02-03T13:25:05.308Z,12.40
2023-02-03T13:28:07.850Z,14.00
2023-02-03T13:30:37.612Z,17.52
2023-02-03T13:33:25.625Z,17.83
2023-02-03T13:35:58.433Z,10.55
2023-02-03T13:38:56.544Z,10.13
2023-02-03T13:41:29.070Z,8.65
2023-02-03T13:43:57.853Z,8.68
2023-02-03T13:46:31.304Z,10.43
2023-02-03T13:49:01.084Z,10.23
2023-02-03T13:51:35.049Z,9.70
2023-02-03T13:54:08.404Z,9.90
2023-02-03T13:56:35.889Z,9.60
2023-02-03T13:59:15.026Z,7.75
2023-02-03T14:01:43.286Z,9.50
2023-02-03T14:04:29.498Z,9.63
2023-02-03T14:06:59.441Z,9.68
2023-02-03T14:09:34.481Z,10.02
2023-02-03T14:12:19.662Z,9.35
2023-02-03T14:14:52.903Z,9.60
2023-02-03T14:17:42.915Z,9.73
2023-02-03T14:20:28.747Z,9.60
2023-02-03T14:23:15.974Z,13.38
2023-02-03T14:25:52.830Z,13.68
2023-02-03T14:28:22.952Z,12.45
2023-02-03T14:31:12.703Z,8.95
2023-02-03T14:33:49.063Z,8.40
2023-02-03T14:36:28.255Z,11.50
2023-02-03T14:38:56.513Z,13.23
2023-02-03T14:41:48.586Z,12.35
2023-02-03T14:44:34.305Z,13.63
2023-02-03T14:47:08.541Z,16.70
2023-02-03T14:49:58.605Z,14.77
2023-02-03T14:52:42.713Z,17.50
2023-02-03T14:55:21.187Z,20.38
2023-02-03T14:57:52.863Z,18.85
2023-02-03T15:00:21.822Z,18.00
2023-02-03T15:03:10.375Z,14.25
2023-02-03T15:05:45.901Z,20.15
2023-02-03T15:08:40.205Z,15.23
2023-02-03T15:11:33.328Z,21.45
2023-02-03T15:14:26.755Z,21.67
2023-02-03T15:16:56.054Z,21.92
2023-02-03T15:19:26.808Z,17.83
2023-02-03T15:21:54.848Z,22.30
2023-02-03T15:24:24.173Z,17.02
2023-02-03T15:26:56.181Z,21.52
2023-02-03T15:29:30.731Z,18.52
2023-02-03T15:32:22.905Z,17.33
2023-02-03T15:37:54.630Z,15.73
2023-02-03T15:40:26.222Z,20.27
2023-02-03T15:43:03.802Z,21.85
2023-02-03T15:45:37.614Z,16.52
2023-02-03T15:48:39.555Z,18.60
2023-02-03T15:51:13.911Z,21.10
2023-02-03T15:53:57.085Z,20.92
2023-02-03T15:56:38.351Z,23.50
2023-02-03T15:59:07.405Z,20.25
2023-02-03T16:01:34.616Z,21.52
2023-02-03T16:04:01.726Z,22.30
2023-02-03T16:06:36.049Z,24.00
2023-02-03T16:09:04.627Z,21.55
2023-02-03T16:11:37.701Z,22.08
2023-02-03T16:14:07.429Z,17.70
2023-02-03T16:16:38.672Z,23.30
2023-02-03T16:19:22.214Z,20.20
2023-02-03T16:21:51.952Z,18.33
2023-02-03T16:24:38.487Z,18.38
2023-02-03T16:27:28.025Z,16.63
2023-02-03T16:30:35.051Z,18.67
2023-02-03T16:33:38.905Z,17.63
2023-02-03T16:36:32.224Z,17.23
2023-02-03T16:39:21.132Z,15.90
2023-02-03T16:42:06.624Z,17.60
2023-02-03T16:44:52.560Z,17.10
2023-02-03T16:47:44.696Z,14.15
2023-02-03T16:50:38.543Z,16.02
2023-02-03T16:53:09.626Z,15.52
2023-02-03T16:55:36.865Z,12.63
2023-02-03T16:58:04.049Z,15.60
2023-02-03T17:00:31.233Z,15.32
2023-02-03T17:02:58.780Z,12.68
2023-02-03T17:05:26.057Z,13.68
2023-02-03T17:07:52.969Z,14.23
2023-02-03T17:10:20.148Z,14.32
2023-02-03T17:12:47.345Z,13.18
2023-02-03T17:15:14.465Z,11.80
2023-02-03T17:17:41.389Z,13.00
2023-02-03T17:20:09.051Z,12.40
2023-02-03T17:22:36.080Z,12.57
2023-02-03T17:25:03.467Z,14.20
2023-02-03T17:27:30.584Z,10.95
2023-02-03T17:29:57.805Z,16.83
2023-02-03T17:32:24.874Z,15.00
2023-02-03T17:34:52.040Z,12.13
2023-02-03T17:37:19.084Z,14.20
2023-02-03T17:53:33.108Z,11.15
2023-02-03T17:56:08.301Z,11.82
2023-02-03T17:58:35.374Z,11.10
2023-02-03T18:01:09.173Z,10.40
2023-02-03T18:03:36.311Z,8.98
2023-02-03T18:06:04.589Z,9.65
2023-02-03T18:08:31.721Z,9.40
2023-02-03T18:10:59.893Z,10.43
2023-02-03T18:13:27.966Z,10.10
2023-02-03T18:15:57.880Z,9.60
2023-02-03T18:18:26.258Z,8.77
2023-02-03T18:20:53.418Z,9.73
2023-02-03T18:23:21.435Z,8.20
2023-02-03T18:25:54.960Z,9.50
2023-02-03T18:28:23.506Z,8.00
2023-02-03T18:30:50.794Z,9.35
2023-02-03T18:33:18.334Z,9.45
2023-02-03T18:35:45.307Z,8.50
2023-02-03T18:38:12.981Z,7.68
2023-02-03T18:40:40.306Z,6.40
2023-02-03T18:43:07.989Z,9.13
2023-02-03T18:45:38.647Z,9.60
2023-02-03T18:48:06.329Z,9.95
2023-02-03T18:50:34.797Z,10.65
2023-02-03T18:53:03.402Z,11.18
2023-02-03T18:55:31.946Z,8.48
2023-02-03T18:57:59.367Z,7.20
2023-02-03T19:00:27.544Z,7.53
2023-02-03T19:02:55.287Z,5.32
2023-02-03T19:05:22.704Z,5.97
2023-02-03T19:07:51.113Z,6.63
2023-02-03T19:10:18.775Z,6.75
2023-02-03T19:12:46.431Z,5.85
2023-02-03T19:15:13.519Z,7.07
2023-02-03T19:17:40.972Z,7.70
2023-02-03T19:20:10.461Z,9.52
2023-02-03T19:22:39.097Z,7.28
2023-02-03T19:25:06.797Z,7.80
2023-02-03T19:27:33.744Z,5.63
2023-02-03T19:30:00.780Z,4.78
2023-02-03T19:32:27.780Z,5.43
2023-02-03T19:34:54.939Z,5.13
2023-02-03T19:37:22.055Z,5.72
2023-02-03T19:39:51.536Z,4.53
2023-02-03T19:42:18.625Z,3.90
2023-02-03T19:44:45.715Z,5.35
2023-02-03T19:47:13.339Z,7.25
2023-02-03T19:49:40.599Z,5.40
2023-02-03T19:52:09.157Z,5.30
2023-02-03T19:54:36.645Z,4.32
2023-02-03T19:57:03.650Z,4.43
2023-02-03T19:59:30.800Z,3.90
2023-02-03T20:02:01.648Z,4.85
2023-02-03T20:04:36.229Z,4.85
2023-02-03T20:07:07.780Z,4.82
2023-02-03T20:09:35.924Z,6.60
2023-02-03T20:12:04.001Z,4.15
2023-02-03T20:14:34.445Z,3.92
2023-02-03T20:17:04.736Z,5.45
2023-02-03T20:19:31.999Z,4.07
2023-02-03T20:22:00.778Z,4.60
2023-02-03T20:24:27.951Z,4.35
2023-02-03T20:26:54.966Z,5.55
2023-02-03T20:29:22.080Z,3.67
2023-02-03T20:31:49.207Z,3.90
2023-02-03T20:34:16.169Z,4.95
2023-02-03T20:36:43.255Z,5.68
2023-02-03T20:39:19.627Z,3.80
2023-02-03T20:41:46.636Z,3.10
2023-02-03T20:44:14.422Z,4.45
2023-02-03T20:46:41.454Z,4.10
2023-02-03T20:49:13.656Z,4.47
2023-02-03T20:51:41.288Z,4.80
2023-02-03T20:54:21.977Z,4.88
2023-02-03T20:56:49.932Z,4.47
2023-02-03T20:59:19.663Z,3.42
2023-02-03T21:01:47.820Z,4.47
2023-02-03T21:04:38.121Z,3.42
2023-02-03T21:07:14.551Z,4.10
2023-02-03T21:09:43.286Z,4.25
2023-02-03T21:12:13.953Z,3.30
2023-02-03T21:14:44.190Z,4.05
2023-02-03T21:17:27.094Z,3.58
2023-02-03T21:19:55.659Z,5.25
2023-02-03T21:22:26.014Z,4.18
2023-02-03T21:24:57.625Z,3.30
2023-02-03T21:27:31.079Z,5.15
2023-02-03T21:30:00.243Z,7.07
2023-02-03T21:32:38.608Z,4.10
2023-02-03T21:35:22.372Z,4.32
2023-02-03T21:37:53.808Z,3.97
2023-02-03T21:40:26.084Z,2.90
2023-02-03T21:42:54.270Z,3.55
2023-02-03T21:45:28.661Z,5.40
2023-02-03T21:47:57.290Z,5.32
2023-02-03T21:50:40.911Z,3.15
2023-02-03T21:53:07.973Z,2.67
2023-02-03T21:55:35.988Z,3.72
2023-02-03T21:58:22.713Z,2.97
2023-02-03T22:00:50.631Z,3.75
2023-02-03T22:03:40.861Z,2.42
2023-02-03T22:06:16.828Z,2.90
2023-02-03T22:08:48.566Z,2.92
2023-02-03T22:13:43.119Z,2.65
2023-02-03T22:16:10.569Z,2.95
2023-02-03T22:18:37.653Z,2.75
2023-02-03T22:21:04.628Z,1.80
2023-02-03T22:23:32.027Z,2.20
2023-02-03T22:25:59.224Z,2.00
2023-02-03T22:28:26.148Z,2.13
2023-02-03T22:30:53.576Z,2.03
2023-02-03T22:33:20.806Z,2.10
2023-02-03T22:35:47.953Z,1.77
2023-02-03T22:38:14.959Z,2.42
2023-02-03T22:40:42.312Z,1.75
2023-02-03T22:43:09.453Z,2.20
2023-02-03T22:45:36.625Z,1.88
2023-02-03T22:48:04.584Z,1.58
2023-02-03T22:50:35.717Z,2.15
2023-02-03T22:53:04.532Z,1.77
2023-02-03T22:55:32.144Z,2.22
2023-02-03T22:57:59.473Z,1.42
2023-02-03T23:00:27.004Z,0.85
2023-02-03T23:02:54.276Z,1.45
2023-02-03T23:05:21.634Z,1.58
2023-02-03T23:07:49.445Z,1.55
2023-02-03T23:10:23.561Z,1.17
2023-02-03T23:12:50.876Z,0.93
2023-02-03T23:15:18.299Z,1.02
2023-02-03T23:17:45.805Z,1.17
2023-02-03T23:20:14.808Z,1.65
2023-02-03T23:22:42.484Z,1.30
2023-02-03T23:25:10.797Z,1.30
2023-02-03T23:27:38.427Z,1.27
2023-02-03T23:30:06.763Z,1.20
2023-02-03T23:32:34.091Z,1.00
2023-02-03T23:35:20.471Z,1.00
2023-02-03T23:37:47.666Z,0.90
2023-02-03T23:40:15.850Z,1.17
2023-02-03T23:42:42.839Z,1.05
2023-02-03T23:45:11.916Z,0.80
2023-02-03T23:47:43.413Z,1.30
2023-02-03T23:50:13.904Z,1.02
2023-02-03T23:52:41.076Z,1.13
2023-02-03T23:55:14.183Z,1.38
2023-02-03T23:57:44.030Z,1.33
